DWEW6128 Weather Reports


time (UTC)temp
C
wind
direction
speed
KPH
gust
KPH
rain 1hr
cm
rain 24hr
cm
rain mn
cm
humidity
%
barometer
mb
20191114105110 17 245 9.7 14.5 0.00 0.00 0.00 55 1009.8
20191114104610 17 214 9.7 14.5 0.00 0.00 0.00 55 1009.8
20191114104109 17 198 4.8 12.9 0.00 0.00 0.00 57 1009.8
20191114103610 17 249 8.0 19.3 0.00 0.00 0.00 58 1009.8
20191114103110 16 234 11.3 19.3 0.00 0.00 0.00 58 1009.8
20191114102610 16 205 8.0 12.9 0.00 0.00 0.00 60 1009.8
20191114102110 16 240 11.3 19.3 0.00 0.00 0.00 59 1009.7
20191114101609 16 218 9.7 19.3 0.00 0.00 0.00 60 1009.7
20191114101110 16 229 8.0 11.3 0.00 0.00 0.00 63 1009.9
20191114100610 16 261 9.7 14.5 0.00 0.00 0.00 62 1009.9
20191114100111 16 273 9.7 14.5 0.00 0.00 0.00 61 1009.9
20191114095609 16 249 4.8 12.9 0.00 0.00 0.00 60 1009.8
20191114095109 16 239 4.8 8.0 0.00 0.00 0.00 60 1009.8
20191114094610 17 230 6.4 9.7 0.00 0.00 0.00 58 1009.9
20191114094110 17 281 3.2 9.7 0.00 0.00 0.00 58 1009.9
20191114093610 17 219 4.8 9.7 0.00 0.00 0.00 59 1009.9
20191114093109 16 217 8.0 11.3 0.00 0.00 0.00 60 1009.9
20191114092609 16 265 8.0 12.9 0.00 0.00 0.00 60 1009.9
20191114092110 16 241 6.4 11.3 0.00 0.00 0.00 61 1009.9
20191114091610 16 262 4.8 8.0 0.00 0.00 0.00 64 1009.9
20191114091110 15 184 1.6 9.7 0.00 0.00 0.00 67 1009.9
20191114090610 15 209 3.2 8.0 0.00 0.00 0.00 70 1009.9
20191114090111 14 243 3.2 4.8 0.00 0.00 0.00 72 1009.9
20191114085609 13 234 1.6 4.8 0.00 0.00 0.00 72 1009.7
20191114085110 13 230 4.8 8.0 0.00 0.00 0.00 71 1009.7
20191114084610 13 215 3.2 4.8 0.00 0.00 0.00 72 1009.7
20191114084110 13 212 3.2 4.8 0.00 0.00 0.00 73 1009.7
20191114083609 13 230 3.2 4.8 0.00 0.00 0.00 73 1009.7
20191114083109 13 189 3.2 8.0 0.00 0.00 0.00 74 1009.6
20191114082609 13 201 3.2 4.8 0.00 0.00 0.00 75 1009.6
20191114082110 12 175 3.2 4.8 0.00 0.00 0.00 75 1009.6
20191114081610 12 131 1.6 4.8 0.00 0.00 0.00 75 1009.6
20191114081110 12 191 3.2 4.8 0.00 0.00 0.00 74 1009.6
20191114080609 12 175 1.6 4.8 0.00 0.00 0.00 74 1009.6
20191114080111 12 140 1.6 3.2 0.00 0.00 0.00 73 1009.6
20191114075610 12 152 1.6 4.8 0.00 0.00 0.00 71 1009.4
20191114075110 12 191 1.6 3.2 0.00 0.00 0.00 71 1009.4
20191114074609 12 191 1.6 3.2 0.00 0.00 0.00 70 1009.4
20191114074109 12 208 1.6 3.2 0.00 0.00 0.00 70 1009.4
20191114073610 12 215 1.6 3.2 0.00 0.00 0.00 71 1009.4
20191114073109 12 217 1.6 4.8 0.00 0.00 0.00 71 1009.4
20191114072610 12 231 3.2 4.8 0.00 0.00 0.00 72 1009.4
20191114072110 11 244 3.2 4.8 0.00 0.00 0.00 72 1009.4
20191114071610 11 248 3.2 4.8 0.00 0.00 0.00 72 1009.4
20191114071110 11 250 1.6 4.8 0.00 0.00 0.00 72 1009.4
20191114070609 11 235 3.2 4.8 0.00 0.00 0.00 72 1009.4
20191114070111 11 240 4.8 4.8 0.00 0.00 0.00 72 1009.4
20191114065609 11 238 3.2 4.8 0.00 0.00 0.00 72 1009.3
20191114065110 11 223 4.8 8.0 0.00 0.00 0.00 72 1009.3
20191114064610 11 241 4.8 8.0 0.00 0.00 0.00 73 1009.3
20191114064109 10 237 4.8 8.0 0.00 0.00 0.00 72 1009.4
20191114063611 10 223 4.8 9.7 0.00 0.00 0.00 72 1009.4
20191114063110 10 219 8.0 9.7 0.00 0.00 0.00 72 1009.3
20191114062609 10 221 8.0 9.7 0.00 0.00 0.00 72 1009.3
20191114062110 10 218 8.0 11.3 0.00 0.00 0.00 72 1008.9
20191114061609 10 223 8.0 11.3 0.00 0.00 0.00 74 1008.9
20191114061110 10 232 8.0 12.9 0.00 0.00 0.00 75 1008.9
20191114060610 10 220 8.0 9.7 0.00 0.00 0.00 76 1008.9
20191114060112 9 210 8.0 9.7 0.00 0.00 0.00 77 1008.9
20191114055609 9 199 4.8 8.0 0.00 0.00 0.00 78 1008.9
20191114055110 8 198 4.8 4.8 0.00 0.00 0.00 78 1008.9
20191114054609 8 181 1.6 4.8 0.00 0.00 0.00 79 1008.9
20191114054110 8 198 4.8 8.0 0.00 0.00 0.00 79 1008.8
20191114053610 8 219 4.8 8.0 0.00 0.00 0.00 80 1008.8
20191114053110 8 202 4.8 9.7 0.00 0.00 0.00 81 1008.8
20191114052609 8 205 8.0 9.7 0.00 0.00 0.00 82 1008.8
20191114052110 8 221 8.0 9.7 0.00 0.00 0.00 82 1008.5
20191114051610 8 214 8.0 9.7 0.00 0.00 0.00 83 1008.5
20191114051109 7 197 4.8 8.0 0.00 0.00 0.00 83 1008.5
20191114050610 7 196 8.0 9.7 0.00 0.00 0.00 84 1008.5
20191114050111 7 190 8.0 9.7 0.00 0.00 0.00 83 1008.5
20191114045610 7 179 4.8 9.7 0.00 0.00 0.00 83 1008.4
20191114045110 7 145 4.8 9.7 0.00 0.00 0.00 83 1008.4
20191114044609 7 185 4.8 9.7 0.00 0.00 0.00 83 1008.4
20191114044109 8 178 4.8 8.0 0.00 0.00 0.00 82 1008.4
20191114043610 8 183 4.8 8.0 0.00 0.00 0.00 82 1008.4
20191114043110 8 194 4.8 8.0 0.00 0.00 0.00 83 1008.3
20191114042609 8 181 3.2 4.8 0.00 0.00 0.00 82 1008.3
20191114042109 8 175 1.6 4.8 0.00 0.00 0.00 82 1008.4
20191114041609 8 196 4.8 8.0 0.00 0.00 0.00 82 1008.4
20191114041110 8 203 4.8 8.0 0.00 0.00 0.00 83 1008.4
20191114040610 8 223 4.8 8.0 0.00 0.00 0.00 83 1008.4
20191114040112 8 215 4.8 8.0 0.00 0.00 0.00 84 1008.4
20191114035609 7 213 4.8 8.0 0.00 0.00 0.00 84 1008.4
20191114035110 7 185 4.8 8.0 0.00 0.00 0.00 83 1008.4
20191114034609 8 171 3.2 4.8 0.00 0.00 0.00 82 1008.4
20191114034109 8 197 4.8 4.8 0.00 0.00 0.00 82 1008.4
20191114033609 8 216 4.8 8.0 0.00 0.00 0.00 83 1008.4
20191114033109 8 205 8.0 8.0 0.00 0.00 0.00 83 1008.4
20191114032609 8 199 4.8 8.0 0.00 0.00 0.00 84 1008.4
20191114032109 7 185 1.6 4.8 0.00 0.00 0.00 84 1008.5
20191114031609 7 175 4.8 4.8 0.00 0.00 0.00 84 1008.5
20191114031110 7 187 1.6 3.2 0.00 0.00 0.00 83 1008.5
20191114030609 8 190 1.6 9.7 0.00 0.00 0.00 83 1008.5
20191114030110 8 196 8.0 9.7 0.00 0.00 0.00 83 1008.5
20191114025609 8 193 4.8 4.8 0.00 0.00 0.00 82 1008.6
20191114025109 8 193 4.8 8.0 0.00 0.00 0.00 81 1008.6
20191114024611 8 198 4.8 8.0 0.00 0.00 0.00 80 1008.6
20191114024110 8 165 3.2 4.8 0.00 0.00 0.00 79 1008.5
20191114023610 9 175 3.2 4.8 0.00 0.00 0.00 78 1008.5
20191114023109 9 199 4.8 4.8 0.00 0.00 0.00 77 1008.5
20191114022609 10 198 4.8 4.8 0.00 0.00 0.00 77 1008.5
20191114022110 10 193 3.2 4.8 0.00 0.00 0.00 77 1008.5
20191114021610 10 202 3.2 4.8 0.00 0.00 0.00 76 1008.5
20191114021110 10 230 3.2 4.8 0.00 0.00 0.00 76 1008.5
20191114020609 10 233 4.8 4.8 0.00 0.00 0.00 76 1008.5
20191114020111 10 232 4.8 8.0 0.00 0.00 0.00 76 1008.5
20191114015609 10 216 4.8 8.0 0.00 0.00 0.00 76 1008.5
20191114015110 10 222 4.8 8.0 0.00 0.00 0.00 76 1008.5
20191114014610 10 232 4.8 8.0 0.00 0.00 0.00 76 1008.3
20191114014109 10 237 4.8 9.7 0.00 0.00 0.00 77 1008.3
20191114013609 10 237 4.8 8.0 0.00 0.00 0.00 77 1008.3
20191114013109 10 232 8.0 11.3 0.00 0.00 0.00 77 1008.3
20191114012609 10 241 8.0 11.3 0.00 0.00 0.00 77 1008.3
20191114012109 10 229 8.0 9.7 0.00 0.00 0.00 77 1008.3
20191114011610 10 233 6.4 9.7 0.00 0.00 0.00 76 1008.3
20191114011110 10 229 6.4 9.7 0.00 0.00 0.00 76 1008.3
20191114010609 10 219 4.8 8.0 0.00 0.00 0.00 75 1008.3
20191114010111 10 240 4.8 11.3 0.00 0.00 0.00 75 1008.3
20191114005610 10 238 8.0 11.3 0.00 0.00 0.00 75 1008.3
20191114005109 11 247 8.0 12.9 0.00 0.00 0.00 75 1008.3
20191114004609 11 244 9.7 14.5 0.00 0.00 0.00 75 1008.3
20191114004110 11 247 9.7 14.5 0.00 0.00 0.00 76 1008.4
20191114003610 10 246 11.3 19.3 0.00 0.00 0.00 77 1008.4
20191114003109 10 244 11.3 19.3 0.00 0.00 0.00 78 1008.4
20191114002610 10 224 9.7 14.5 0.00 0.00 0.00 78 1008.5
20191114002110 10 234 9.7 12.9 0.00 0.00 0.00 77 1008.5
20191114001610 10 244 9.7 12.9 0.00 0.00 0.00 77 1008.5
20191114001110 10 248 9.7 12.9 0.00 0.00 0.00 77 1008.5
20191114000609 11 233 9.7 12.9 0.00 0.00 0.00 77 1008.5
20191114000112 10 240 9.7 11.3 0.00 0.00 0.00 78 1008.5
20191113235609 10 242 8.0 11.3 0.00 0.00 0.00 79 1008.5
20191113235109 10 236 8.0 11.3 0.00 0.00 0.00 79 1008.5
20191113234609 10 219 4.8 9.7 0.00 0.00 0.00 80 1008.5
20191113234109 10 202 4.8 8.0 0.00 0.00 0.00 80 1008.5
20191113233609 10 225 4.8 8.0 0.00 0.00 0.00 80 1008.5
20191113233109 10 240 4.8 8.0 0.00 0.00 0.00 81 1008.5
20191113232610 10 231 4.8 8.0 0.00 0.00 0.00 81 1008.5
20191113232110 10 236 4.8 9.7 0.00 0.00 0.00 80 1008.5
20191113231610 10 225 8.0 9.7 0.00 0.00 0.00 80 1008.5
20191113231113 10 199 8.0 11.3 0.00 0.00 0.00 79 1008.5
20191113230610 10 216 8.0 9.7 0.00 0.00 0.00 79 1008.5
20191113230111 10 236 9.7 11.3 0.00 0.00 0.00 78 1008.5
20191113225609 10 230 8.0 11.3 0.00 0.00 0.00 77 1008.5
20191113225110 10 248 3.2 8.0 0.00 0.00 0.00 77 1008.5
20191113224609 11 231 4.8 8.0 0.00 0.00 0.00 76 1008.5
20191113224110 11 225 8.0 9.7 0.00 0.00 0.00 76 1008.5
20191113223609 11 224 6.4 8.0 0.00 0.00 0.00 76 1008.5
20191113223109 11 220 8.0 9.7 0.00 0.00 0.00 76 1008.5
20191113222609 11 219 4.8 9.7 0.00 0.00 0.00 76 1008.5
20191113222110 11 235 8.0 11.3 0.00 0.00 0.00 76 1008.5
20191113221610 11 254 9.7 14.5 0.00 0.00 0.00 75 1008.5
20191113221110 11 231 4.8 9.7 0.00 0.00 0.00 75 1008.5
20191113220609 11 216 6.4 11.3 0.00 0.00 0.00 74 1008.5
20191113220111 11 197 4.8 8.0 0.00 0.00 0.00 73 1008.4
20191113215609 11 181 3.2 9.7 0.00 0.00 0.00 73 1008.3
20191113215110 11 153 3.2 8.0 0.00 0.00 0.00 73 1008.3
20191113214609 12 195 4.8 9.7 0.00 0.00 0.00 72 1008.3
20191113214109 12 235 8.0 12.9 0.00 0.00 0.00 72 1008.3
20191113213609 12 260 9.7 12.9 0.00 0.00 0.00 72 1008.3
20191113213109 12 264 9.7 12.9 0.00 0.00 0.00 72 1008.3
20191113212609 12 264 8.0 11.3 0.00 0.03 0.00 72 1008.3
20191113212110 12 260 9.7 14.5 0.00 0.03 0.00 72 1008.4
20191113211609 12 244 9.7 14.5 0.00 0.03 0.00 72 1008.4
20191113211110 12 249 9.7 12.9 0.00 0.03 0.00 71 1008.4
20191113210609 12 256 9.7 14.5 0.00 0.05 0.00 71 1008.4
20191113210111 12 245 9.7 12.9 0.00 0.05 0.00 71 1008.4
20191113205609 12 233 9.7 11.3 0.00 0.05 0.00 71 1008.4
20191113205109 12 247 8.0 12.9 0.00 0.05 0.00 71 1008.4
20191113204610 12 239 8.0 11.3 0.00 0.05 0.00 70 1008.4
20191113204110 12 255 8.0 12.9 0.00 0.05 0.00 70 1008.4
20191113203609 12 241 8.0 11.3 0.00 0.05 0.00 70 1008.4
20191113203109 12 239 8.0 9.7 0.00 0.05 0.00 70 1008.4
20191113202609 12 250 9.7 12.9 0.00 0.05 0.00 70 1008.4
20191113202109 12 248 9.7 12.9 0.00 0.05 0.00 70 1008.4
20191113201609 12 240 8.0 11.3 0.00 0.05 0.00 69 1008.4
20191113201110 12 247 4.8 8.0 0.00 0.05 0.00 69 1008.4
20191113200609 12 249 8.0 9.7 0.00 0.05 0.00 70 1008.2
20191113200112 12 244 6.4 9.7 0.00 0.05 0.00 70 1008.2
20191113195609 12 246 8.0 11.3 0.00 0.05 0.00 70 1008.2
20191113195110 13 242 8.0 9.7 0.00 0.05 0.00 69 1008.1
20191113194608 13 255 4.8 9.7 0.00 0.05 0.00 69 1007.9
20191113194109 13 243 8.0 9.7 0.00 0.05 0.00 69 1007.1
20191113193609 13 248 4.8 9.7 0.00 0.05 0.00 69 1007.1
20191113193109 13 254 4.8 11.3 0.00 0.05 0.00 70 1007.1
20191113192609 13 252 8.0 9.7 0.00 0.05 0.00 70 1007.1
20191113192109 13 234 4.8 8.0 0.00 0.05 0.00 71 1007.1
20191113191609 13 241 4.8 8.0 0.00 0.05 0.00 71 1007.1
20191113191109 13 248 8.0 11.3 0.00 0.05 0.00 71 1007.1
20191113190609 13 249 9.7 14.5 0.00 0.05 0.00 71 1007.1
20191113190111 13 256 9.7 12.9 0.00 0.05 0.00 72 1007.1
20191113185609 13 270 8.0 11.3 0.00 0.05 0.00 73 1006.4
20191113185110 13 258 9.7 12.9 0.00 0.05 0.00 75 1006.4
20191113184609 12 255 8.0 9.7 0.00 0.05 0.00 77 1006.4
20191113184110 13 235 3.2 8.0 0.00 0.05 0.00 78 1006.4
20191113183609 13 209 4.8 8.0 0.00 0.05 0.00 78 1006.4
20191113183109 13 202 3.2 4.8 0.00 0.05 0.00 78 1006.4
20191113182609 13 187 3.2 4.8 0.00 0.05 0.00 77 1006.4
20191113182109 13 157 1.6 4.8 0.00 0.05 0.00 76 1006.4
20191113181609 13 146 3.2 4.8 0.00 0.05 0.00 75 1006.4
20191113181109 13 185 1.6 3.2 0.00 0.05 0.00 75 1006.4
20191113180609 14 186 1.6 4.8 0.00 0.05 0.00 74 1006.4
20191113180110 14 221 4.8 4.8 0.00 0.05 0.00 74 1006.4
20191113175609 14 264 1.6 4.8 0.00 0.05 0.00 74 1005.8
20191113175110 14 184 1.6 4.8 0.00 0.05 0.00 74 1005.8
20191113174609 15 190 1.6 4.8 0.00 0.05 0.00 73 1005.8
20191113174110 15 214 1.6 4.8 0.00 0.05 0.00 72 1005.8
20191113173609 15 251 0.0 3.2 0.00 0.05 0.00 72 1005.8
20191113173109 15 251 0.0 3.2 0.00 0.05 0.00 71 1005.8
20191113172609 15 251 0.0 1.6 0.00 0.05 0.00 71 1005.8
20191113172109 15 251 0.0 1.6 0.00 0.05 0.00 70 1005.8
20191113171609 15 251 0.0 3.2 0.00 0.05 0.00 70 1005.8
20191113171109 15 251 1.6 4.8 0.00 0.05 0.00 70 1005.8
20191113170609 15 257 4.8 9.7 0.00 0.05 0.00 70 1005.6
20191113170110 16 253 8.0 9.7 0.00 0.05 0.00 70 1005.6
20191113165609 16 249 8.0 11.3 0.00 0.05 0.00 70 1005.5
20191113165109 15 256 8.0 11.3 0.00 0.05 0.00 71 1005.5
20191113164609 15 247 8.0 11.3 0.00 0.05 0.00 73 1005.5
20191113164109 15 241 8.0 9.7 0.00 0.05 0.00 74 1004.9
20191113163610 15 239 4.8 4.8 0.00 0.05 0.00 74 1004.9
20191113163109 15 236 3.2 8.0 0.00 0.05 0.00 75 1004.9
20191113162609 15 232 3.2 4.8 0.00 0.05 0.00 75 1004.9
20191113162109 15 185 3.2 4.8 0.00 0.05 0.00 74 1004.9
20191113161609 16 211 1.6 4.8 0.00 0.05 0.00 74 1004.9
20191113161110 16 202 1.6 4.8 0.00 0.05 0.00 74 1004.9
20191113160608 16 215 3.2 4.8 0.00 0.05 0.00 73 1004.9
20191113160110 16 210 3.2 8.0 0.00 0.05 0.00 72 1004.8
20191113155609 16 231 8.0 8.0 0.00 0.05 0.00 71 1004.7
20191113155109 16 231 4.8 4.8 0.00 0.05 0.00 71 1004.7
20191113154608 16 231 3.2 4.8 0.00 0.05 0.00 71 1004.7
20191113154109 16 246 3.2 4.8 0.00 0.05 0.00 70 1004.7
20191113153609 17 244 4.8 4.8 0.00 0.05 0.00 70 1004.7
20191113153108 17 251 4.8 9.7 0.00 0.05 0.00 69 1004.5
20191113152609 17 246 4.8 9.7 0.00 0.05 0.00 69 1004.5
20191113152109 17 246 8.0 9.7 0.00 0.05 0.00 68 1004.1
20191113151609 17 242 3.2 4.8 0.00 0.05 0.00 67 1004.1
20191113151109 17 256 3.2 8.0 0.00 0.05 0.00 66 1004.1
20191113150608 17 255 4.8 8.0 0.00 0.05 0.00 66 1004.1
20191113150110 17 259 8.0 11.3 0.00 0.05 0.00 65 1004.0
20191113145609 17 256 8.0 19.3 0.00 0.05 0.00 64 1003.2
20191113145109 17 252 9.7 16.1 0.00 0.05 0.00 64 1003.2
20191113144609 17 256 9.7 14.5 0.00 0.05 0.00 65 1003.2
20191113144109 18 257 9.7 12.9 0.00 0.05 0.00 65 1003.2
20191113143609 18 260 11.3 16.1 0.00 0.05 0.00 65 1003.2
20191113143109 18 254 11.3 19.3 0.00 0.05 0.00 65 1003.2
20191113142608 18 275 11.3 19.3 0.00 0.05 0.00 66 1003.2
20191113142109 18 259 11.3 16.1 0.00 0.05 0.00 65 1003.2
20191113141609 18 249 8.0 11.3 0.00 0.05 0.00 65 1003.2
20191113141109 18 244 9.7 16.1 0.00 0.05 0.00 65 1003.2
20191113140609 18 251 11.3 19.3 0.00 0.05 0.00 64 1003.2
20191113140110 18 251 8.0 14.5 0.00 0.05 0.00 64 1003.2
20191113135609 18 234 6.4 12.9 0.00 0.05 0.00 65 1002.7
20191113135109 18 247 6.4 8.0 0.00 0.05 0.00 65 1002.7
20191113134609 18 237 3.2 4.8 0.00 0.05 0.00 66 1002.7
20191113134108 18 235 6.4 11.3 0.00 0.05 0.00 65 1002.7
20191113133608 18 260 3.2 4.8 0.00 0.05 0.00 66 1002.7
20191113133109 18 253 3.2 11.3 0.00 0.05 0.00 66 1002.7
20191113132608 18 224 8.0 12.9 0.00 0.05 0.00 66 1002.7
20191113132110 18 193 6.4 9.7 0.00 0.05 0.00 67 1002.7
20191113131609 18 222 8.0 11.3 0.00 0.05 0.00 67 1002.7
20191113131110 18 216 4.8 14.5 0.00 0.05 0.00 67 1002.7
20191113130608 18 219 8.0 12.9 0.00 0.05 0.00 66 1002.5
20191113130110 18 210 9.7 19.3 0.00 0.05 0.00 65 1002.5
20191113125609 18 244 11.3 14.5 0.00 0.05 0.00 66 1001.5
20191113125109 18 249 8.0 12.9 0.00 0.05 0.00 66 1001.5
20191113124609 18 226 11.3 19.3 0.00 0.05 0.00 65 1001.5
20191113124109 18 234 9.7 14.5 0.00 0.05 0.00 67 1001.5
20191113123608 18 211 9.7 14.5 0.00 0.05 0.00 66 1001.5
20191113123108 18 218 8.0 14.5 0.00 0.05 0.00 64 1001.5
20191113122608 18 230 4.8 19.3 0.00 0.05 0.00 64 1001.5
20191113122110 18 247 3.2 11.3 0.00 0.05 0.00 63 1001.5
20191113121609 18 222 4.8 11.3 0.00 0.05 0.00 62 1001.5
20191113121109 18 218 8.0 16.1 0.00 0.05 0.00 62 1001.5
20191113120609 18 229 11.3 24.1 0.00 0.05 0.00 61 1001.5
20191113120110 18 215 11.3 19.3 0.00 0.05 0.00 61 1001.5
20191113115609 18 221 12.9 19.3 0.00 0.05 0.00 61 1001.4
20191113115109 18 227 11.3 22.5 0.00 0.05 0.00 62 1001.4
20191113114609 18 229 12.9 25.7 0.00 0.05 0.00 62 1001.1
20191113114109 18 221 14.5 25.7 0.00 0.05 0.00 63 1001.1
20191113113609 18 217 12.9 24.1 0.00 0.05 0.00 62 1001.1
20191113113108 18 241 19.3 29.0 0.00 0.05 0.00 61 1001.1
20191113112609 18 233 14.5 22.5 0.00 0.05 0.00 64 1001.1
20191113112109 18 222 9.7 22.5 0.00 0.05 0.00 66 1001.1
20191113111609 18 213 11.3 22.5 0.00 0.05 0.00 67 1001.1
20191113111108 18 227 11.3 19.3 0.00 0.05 0.00 67 1001.1
20191113110609 18 205 8.0 22.5 0.00 0.05 0.00 66 1001.1
20191113110111 18 199 9.7 24.1 0.00 0.05 0.00 64 1001.1
20191113105609 18 225 16.1 24.1 0.00 0.05 0.00 63 1000.8